Time;durP1;ratioP1;P1;durP2;ratioP2;P2;SDS_P1;SDS_P2;PMS_P1;PMS_P2;Temp;Humidity;BMP_temperature;BMP_pressure;BME280_temperature;BME280_humidity;BME280_pressure;Samples;Min_cycle;Max_cycle;Signal;HPM_P1;HPM_P2
2021/04/20 00:00:08;;;;;;;8.07;4.38;;;;;;;8.64;30.15;100412.47;5082100;28;20047;-64
2021/04/20 00:02:34;;;;;;;11.43;3.70;;;;;;;8.87;29.70;100418.16;5072291;28;20389;-64
2021/04/20 00:04:59;;;;;;;7.60;4.28;;;;;;;8.67;30.33;100414.94;5062547;28;20043;-66
2021/04/20 00:07:25;;;;;;;8.35;4.43;;;;;;;8.30;30.54;100355.88;5081237;28;20032;-66
2021/04/20 00:09:50;;;;;;;8.77;4.03;;;;;;;8.42;30.91;100402.28;5079791;28;20433;-66
2021/04/20 00:12:17;;;;;;;7.20;4.35;;;;;;;8.10;30.63;100336.63;5073366;28;20466;-63
2021/04/20 00:14:42;;;;;;;7.35;4.47;;;;;;;8.13;31.26;100354.28;5085552;28;20124;-66
2021/04/20 00:17:08;;;;;;;7.82;3.95;;;;;;;8.40;31.08;100402.34;5074219;28;20035;-63
2021/04/20 00:19:33;;;;;;;8.55;4.50;;;;;;;8.66;31.82;100410.56;5079485;28;20044;-63
2021/04/20 00:22:00;;;;;;;9.40;5.40;;;;;;;8.73;32.32;100414.59;5072801;28;20492;-67
2021/04/20 00:24:26;;;;;;;7.70;4.22;;;;;;;8.57;32.99;100425.38;5084276;28;20085;-64
2021/04/20 00:26:59;;;;;;;14.05;6.20;;;;;;;8.35;33.15;100382.28;5056545;28;20441;-65
2021/04/20 00:29:25;;;;;;;9.15;4.78;;;;;;;8.48;32.97;100421.44;5080579;28;20094;-64
2021/04/20 00:31:50;;;;;;;7.18;4.60;;;;;;;8.59;32.92;100403.91;5077667;28;20064;-66
2021/04/20 00:34:16;;;;;;;7.00;4.03;;;;;;;8.41;32.74;100358.72;5083813;28;20075;-65
2021/04/20 00:36:41;;;;;;;7.70;4.10;;;;;;;8.60;33.17;100438.53;5072071;28;20040;-65
2021/04/20 00:39:07;;;;;;;8.88;4.45;;;;;;;8.40;33.56;100426.38;5082765;28;20105;-65
2021/04/20 00:41:33;;;;;;;7.75;4.57;;;;;;;8.45;33.04;100432.31;5077140;28;20035;-61
2021/04/20 00:43:59;;;;;;;6.65;4.28;;;;;;;8.19;33.42;100423.22;5057731;28;20040;-63
2021/04/20 00:46:24;;;;;;;11.20;4.32;;;;;;;8.12;33.71;100417.41;5081438;28;20040;-65
2021/04/20 00:48:51;;;;;;;6.15;3.85;;;;;;;8.38;32.72;100414.94;5075398;28;20114;-64
2021/04/20 00:51:20;;;;;;;10.50;4.15;;;;;;;8.21;32.69;100416.00;5085651;28;20081;-65
2021/04/20 00:53:46;;;;;;;7.28;3.90;;;;;;;8.33;32.46;100411.72;5063418;28;20032;-66
2021/04/20 00:56:12;;;;;;;8.98;4.45;;;;;;;8.16;32.87;100408.25;5058047;28;20394;-65
2021/04/20 00:58:38;;;;;;;8.25;4.40;;;;;;;8.19;32.93;100418.72;5071843;28;20028;-64
2021/04/20 01:01:04;;;;;;;12.00;4.47;;;;;;;8.17;33.00;100420.66;5086935;28;20109;-64
2021/04/20 01:03:30;;;;;;;6.60;3.53;;;;;;;8.21;32.66;100432.00;5075239;28;20045;-64
2021/04/20 01:05:57;;;;;;;6.68;3.92;;;;;;;8.32;31.76;100421.53;5068749;28;20029;-64
2021/04/20 01:08:24;;;;;;;6.28;3.45;;;;;;;8.30;31.80;100419.91;5054032;28;20313;-64
2021/04/20 01:10:53;;;;;;;5.70;3.40;;;;;;;8.13;31.02;100392.44;5087184;28;20066;-64
2021/04/20 01:13:21;;;;;;;5.55;3.88;;;;;;;8.10;30.92;100405.97;5074892;28;20046;-64
2021/04/20 01:15:48;;;;;;;9.07;3.83;;;;;;;7.98;30.95;100398.75;5079120;28;20039;-63
2021/04/20 01:18:17;;;;;;;7.72;3.33;;;;;;;7.98;30.57;100372.91;5077183;28;20168;-64
2021/04/20 01:20:44;;;;;;;5.90;3.72;;;;;;;7.82;30.16;100334.81;5087706;28;20039;-61
2021/04/20 01:23:16;;;;;;;8.85;3.60;;;;;;;8.29;29.13;100391.50;5077147;28;20047;-64
2021/04/20 01:25:42;;;;;;;5.68;3.72;;;;;;;8.07;29.57;100367.97;5088954;28;20119;-64
2021/04/20 01:28:08;;;;;;;11.73;3.65;;;;;;;7.79;29.80;100351.84;5078055;28;20090;-65
2021/04/20 01:30:35;;;;;;;5.68;3.45;;;;;;;8.03;30.17;100397.47;5087999;28;20036;-64
2021/04/20 01:33:05;;;;;;;6.35;3.50;;;;;;;7.96;29.80;100379.31;5076748;28;20047;-66
2021/04/20 01:35:35;;;;;;;5.30;3.25;;;;;;;7.87;30.22;100391.38;5082446;28;20392;-65
2021/04/20 01:38:03;;;;;;;6.20;3.60;;;;;;;7.71;30.03;100378.97;5084485;28;20028;-65
2021/04/20 01:40:29;;;;;;;6.85;3.38;;;;;;;7.32;30.18;100330.63;5062070;28;20097;-63
2021/04/20 01:42:56;;;;;;;7.03;3.60;;;;;;;7.96;29.51;100381.97;5058650;28;20055;-63
2021/04/20 01:45:22;;;;;;;5.03;3.58;;;;;;;8.16;28.44;100380.75;5087507;28;20293;-65
2021/04/20 01:47:49;;;;;;;7.55;3.60;;;;;;;7.80;28.82;100360.69;5072942;28;20483;-63
2021/04/20 01:50:14;;;;;;;6.15;3.88;;;;;;;7.47;28.89;100299.53;5076651;28;20074;-65
2021/04/20 01:52:43;;;;;;;8.05;3.22;;;;;;;7.89;29.15;100379.66;5087576;28;20069;-64
2021/04/20 01:55:10;;;;;;;8.23;3.55;;;;;;;7.72;28.85;100323.88;5065842;28;20115;-64
2021/04/20 01:57:36;;;;;;;7.72;3.72;;;;;;;7.39;28.92;100290.28;5066769;28;20127;-63
2021/04/20 02:00:12;;;;;;;6.68;3.60;;;;;;;8.06;27.99;100377.78;5084005;28;20064;-63
2021/04/20 02:02:37;;;;;;;;;;;;;;;8.22;27.75;100379.50;5074427;28;20041;-65
2021/04/20 02:05:05;;;;;;;6.65;3.30;;;;;;;7.90;27.82;100349.38;5086057;28;20065;-63
2021/04/20 02:07:32;;;;;;;6.45;3.35;;;;;;;8.03;27.25;100360.16;5071253;28;20102;-65
2021/04/20 02:09:59;;;;;;;6.90;3.10;;;;;;;7.68;27.11;100285.00;5064480;28;20079;-64
2021/04/20 02:12:25;;;;;;;4.07;3.10;;;;;;;7.90;27.45;100364.53;5075246;28;20043;-65
2021/04/20 02:14:51;;;;;;;7.50;3.15;;;;;;;7.86;27.87;100365.69;5086760;28;20032;-64
2021/04/20 02:17:17;;;;;;;6.57;4.00;;;;;;;7.96;27.43;100355.31;5071510;28;20403;-63
2021/04/20 02:19:43;;;;;;;4.13;3.20;;;;;;;7.86;27.53;100337.19;5080599;28;20933;-63
2021/04/20 02:22:09;;;;;;;8.10;3.20;;;;;;;7.75;27.54;100339.66;5076794;28;20072;-62
2021/04/20 02:24:35;;;;;;;5.60;3.50;;;;;;;7.78;27.48;100339.47;5086618;28;20163;-63
2021/04/20 02:27:01;;;;;;;5.35;3.20;;;;;;;7.90;27.42;100348.53;5075267;28;20039;-62
2021/04/20 02:29:27;;;;;;;7.78;3.47;;;;;;;8.04;27.00;100355.69;5076079;28;20411;-64
2021/04/20 02:31:52;;;;;;;5.53;2.92;;;;;;;7.93;27.16;100340.34;5078406;28;20451;-62
2021/04/20 02:34:20;;;;;;;6.90;4.03;;;;;;;7.51;27.91;100334.88;5085005;28;20522;-63
2021/04/20 02:36:48;;;;;;;6.55;3.03;;;;;;;7.67;27.55;100361.44;5072717;28;20059;-62
2021/04/20 02:39:15;;;;;;;7.13;3.35;;;;;;;7.75;27.36;100343.19;5085915;28;20032;-63
2021/04/20 02:41:45;;;;;;;7.82;3.58;;;;;;;7.63;27.28;100345.72;5078963;28;20484;-63
2021/04/20 02:44:10;;;;;;;7.47;3.70;;;;;;;7.59;28.07;100350.38;5084118;28;20103;-62
2021/04/20 02:46:37;;;;;;;6.88;3.15;;;;;;;7.76;27.54;100342.22;5088120;28;20417;-64
2021/04/20 02:49:04;;;;;;;7.25;3.80;;;;;;;7.80;27.76;100353.56;5071893;28;20399;-61
2021/04/20 02:51:30;;;;;;;7.97;3.58;;;;;;;7.51;28.19;100324.22;5066933;28;20059;-64
2021/04/20 02:53:56;;;;;;;6.70;3.47;;;;;;;7.72;27.60;100353.19;5076454;28;20055;-63
2021/04/20 02:56:23;;;;;;;4.43;3.05;;;;;;;7.95;27.18;100370.44;5080800;28;20043;-63
2021/04/20 02:58:49;;;;;;;5.82;3.47;;;;;;;7.83;26.73;100347.19;5072647;28;20163;-63
2021/04/20 03:01:25;;;;;;;11.15;3.55;;;;;;;7.86;27.27;100363.84;5083630;28;20521;-63
2021/04/20 03:03:51;;;;;;;6.85;3.03;;;;;;;7.86;26.84;100368.34;5080601;28;20028;-63
2021/04/20 03:06:18;;;;;;;6.40;3.17;;;;;;;7.71;27.06;100346.97;5072886;28;20457;-63
2021/04/20 03:08:44;;;;;;;12.30;3.35;;;;;;;7.58;27.31;100362.84;5085009;28;20498;-62
2021/04/20 03:11:32;;;;;;;8.18;3.28;;;;;;;7.72;27.73;100358.50;5066518;28;20036;-63
2021/04/20 03:14:00;;;;;;;4.65;2.90;;;;;;;7.73;27.08;100347.75;5081439;28;20028;-63
2021/04/20 03:16:26;;;;;;;7.20;3.78;;;;;;;7.64;27.05;100342.09;5060968;28;20037;-63
2021/04/20 03:18:51;;;;;;;8.88;3.55;;;;;;;7.54;27.01;100329.34;5085473;28;20522;-64
2021/04/20 03:21:18;;;;;;;5.28;2.85;;;;;;;7.93;26.89;100363.47;5076070;28;20040;-62
2021/04/20 03:23:44;;;;;;;6.57;3.30;;;;;;;7.83;26.96;100348.03;5078842;28;20500;-62
2021/04/20 03:26:31;;;;;;;7.45;3.22;;;;;;;7.88;27.21;100356.63;5071351;28;20439;-64
2021/04/20 03:28:59;;;;;;;7.32;3.33;;;;;;;7.98;26.70;100366.75;5056851;28;20055;-64
2021/04/20 03:31:25;;;;;;;6.13;3.00;;;;;;;7.87;26.82;100352.22;5081215;28;20419;-62
2021/04/20 03:34:05;;;;;;;5.93;3.30;;;;;;;7.75;26.73;100329.00;5060050;28;20119;-62
2021/04/20 03:36:35;;;;;;;8.77;3.17;;;;;;;7.70;27.09;100357.72;5075481;28;20063;-62
2021/04/20 03:39:09;;;;;;;8.95;3.50;;;;;;;7.66;26.82;100340.22;5084538;28;20036;-62
2021/04/20 03:41:44;;;;;;;9.55;3.22;;;;;;;7.60;26.89;100360.09;5077523;28;20073;-61
2021/04/20 03:44:15;;;;;;;11.30;3.40;;;;;;;7.50;27.58;100349.13;5074567;28;20052;-61
2021/04/20 03:46:45;;;;;;;8.93;3.30;;;;;;;7.44;27.45;100336.16;5080023;28;20047;-61
2021/04/20 03:49:27;;;;;;;7.90;3.30;;;;;;;7.65;27.28;100341.16;5059899;28;20130;-61
2021/04/20 03:51:55;;;;;;;9.32;3.40;;;;;;;7.68;27.48;100359.63;5076286;28;20094;-62
2021/04/20 03:54:22;;;;;;;10.77;3.60;;;;;;;7.94;26.87;100349.19;5084351;28;20168;-62
2021/04/20 03:56:51;;;;;;;11.48;3.17;;;;;;;7.95;26.75;100342.91;5072013;28;20090;-61
2021/04/20 03:59:19;;;;;;;8.95;3.30;;;;;;;8.21;26.74;100332.47;5065783;28;20059;-62
2021/04/20 04:01:48;;;;;;;6.80;3.25;;;;;;;8.76;25.91;100344.97;5077731;28;20036;-63
2021/04/20 04:04:19;;;;;;;7.07;3.05;;;;;;;9.58;24.79;100337.84;5083233;28;20036;-62
2021/04/20 04:06:46;;;;;;;11.35;3.17;;;;;;;10.01;24.39;100328.66;5072325;28;20492;-61
2021/04/20 04:09:15;;;;;;;13.32;4.28;;;;;;;10.34;23.90;100340.59;5073439;28;20063;-64
2021/04/20 04:11:48;;;;;;;6.28;3.00;;;;;;;10.37;23.80;100345.75;5078249;28;20067;-63
2021/04/20 04:14:16;;;;;;;8.05;3.10;;;;;;;10.52;23.39;100345.63;5083047;28;20456;-61
2021/04/20 04:16:45;;;;;;;8.32;3.22;;;;;;;10.06;23.74;100337.22;5071833;28;20119;-61
2021/04/20 04:19:12;;;;;;;13.73;5.22;;;;;;;9.79;24.00;100332.00;5083776;28;20073;-62
2021/04/20 04:21:46;;;;;;;11.73;3.33;;;;;;;9.71;24.26;100327.16;5080867;28;20036;-60
2021/04/20 04:24:13;;;;;;;8.38;3.60;;;;;;;9.71;24.34;100322.66;5086826;28;20024;-61
2021/04/20 04:26:44;;;;;;;10.43;2.90;;;;;;;9.97;24.32;100333.34;5068275;28;20068;-61
2021/04/20 04:29:13;;;;;;;8.93;2.88;;;;;;;10.42;23.61;100349.00;5086841;28;20036;-62
2021/04/20 04:31:42;;;;;;;8.45;3.78;;;;;;;10.24;23.54;100347.59;5082089;28;20036;-60
2021/04/20 04:34:11;;;;;;;10.23;3.45;;;;;;;10.02;23.80;100338.41;5078597;28;20420;-61
2021/04/20 04:36:38;;;;;;;7.60;3.50;;;;;;;9.93;23.91;100342.56;5080621;28;20029;-62
2021/04/20 04:39:04;;;;;;;6.72;3.42;;;;;;;9.67;24.21;100331.03;5087769;28;20036;-58
2021/04/20 04:41:30;;;;;;;5.07;3.33;;;;;;;9.47;24.50;100302.00;5076921;28;20121;-62
2021/04/20 04:43:55;;;;;;;7.25;3.60;;;;;;;9.54;24.38;100286.41;5071701;28;20081;-63
2021/04/20 04:46:23;;;;;;;9.48;3.50;;;;;;;9.90;24.10;100316.03;5088204;28;20082;-61
2021/04/20 04:48:50;;;;;;;8.90;3.63;;;;;;;9.95;24.13;100318.41;5059885;28;20033;-62
2021/04/20 04:51:17;;;;;;;4.20;2.97;;;;;;;9.97;23.91;100297.75;5085923;28;20468;-63
2021/04/20 04:53:43;;;;;;;9.10;3.75;;;;;;;9.95;23.91;100315.72;5082322;28;20073;-60
2021/04/20 04:56:12;;;;;;;9.80;3.80;;;;;;;9.62;24.15;100278.69;5078043;28;20041;-62
2021/04/20 04:58:37;;;;;;;8.98;3.40;;;;;;;10.18;24.24;100308.72;5066448;28;20039;-62
2021/04/20 05:01:04;;;;;;;5.07;3.78;;;;;;;10.55;23.71;100300.78;5087598;28;20056;-62
2021/04/20 05:03:29;;;;;;;8.10;3.58;;;;;;;11.01;23.08;100291.13;5080347;28;20052;-63
2021/04/20 05:05:56;;;;;;;6.00;3.60;;;;;;;11.29;22.49;100299.75;5079375;28;20036;-63
2021/04/20 05:08:23;;;;;;;10.52;3.25;;;;;;;11.86;22.12;100313.31;5074836;28;20028;-62
2021/04/20 05:10:50;;;;;;;10.32;4.00;;;;;;;12.14;21.77;100297.75;5087602;28;20135;-61
2021/04/20 05:13:16;;;;;;;7.82;3.50;;;;;;;13.10;20.47;100294.47;5077388;28;20032;-61
2021/04/20 05:15:42;;;;;;;5.72;2.92;;;;;;;15.43;18.58;100282.13;5081750;28;20037;-62
2021/04/20 05:18:12;;;;;;;6.88;3.75;;;;;;;16.88;17.02;100279.09;5083845;28;20050;-58
2021/04/20 05:20:45;;;;;;;6.68;3.42;;;;;;;16.64;16.84;100248.13;5086846;28;20040;-60
2021/04/20 05:23:17;;;;;;;6.03;3.88;;;;;;;15.60;17.32;100277.00;5077268;28;20028;-63
2021/04/20 05:25:44;;;;;;;12.68;4.00;;;;;;;14.95;17.99;100277.63;5079997;28;20028;-62
2021/04/20 05:28:10;;;;;;;10.73;3.97;;;;;;;14.41;18.60;100269.84;5085309;28;20047;-62
2021/04/20 05:30:36;;;;;;;9.27;3.80;;;;;;;13.93;19.17;100294.59;5059099;28;20037;-61
2021/04/20 05:33:02;;;;;;;9.02;4.32;;;;;;;13.83;19.21;100282.94;5087281;28;20067;-62
2021/04/20 05:35:28;;;;;;;9.95;4.13;;;;;;;13.60;19.74;100264.28;5079323;28;20062;-62
2021/04/20 05:37:54;;;;;;;12.40;4.07;;;;;;;13.76;19.67;100279.09;5079101;28;21010;-62
2021/04/20 05:40:22;;;;;;;8.68;3.58;;;;;;;13.97;19.62;100278.19;5068798;28;20036;-62
2021/04/20 05:42:50;;;;;;;8.88;3.80;;;;;;;14.25;19.25;100271.22;5087154;28;20071;-62
2021/04/20 05:45:16;;;;;;;9.75;4.32;;;;;;;14.53;18.91;100255.25;5077717;28;20032;-62
2021/04/20 05:47:47;;;;;;;9.38;4.53;;;;;;;14.75;18.81;100261.41;5082400;28;20032;-62
2021/04/20 05:50:29;;;;;;;11.50;4.30;;;;;;;14.86;18.78;100260.44;5073904;28;20036;-61
2021/04/20 05:52:56;;;;;;;14.57;4.20;;;;;;;14.80;18.59;100259.16;5074483;28;20095;-61
2021/04/20 05:55:23;;;;;;;8.02;3.65;;;;;;;14.81;18.64;100254.63;5083892;28;20412;-61
2021/04/20 05:57:52;;;;;;;10.40;4.05;;;;;;;14.92;18.41;100241.84;5081136;28;20032;-62
2021/04/20 06:00:20;;;;;;;11.20;4.40;;;;;;;14.57;18.70;100259.38;5076268;28;20052;-63
2021/04/20 06:02:47;;;;;;;7.47;4.18;;;;;;;14.32;19.14;100271.53;5073225;28;20044;-61
2021/04/20 06:05:15;;;;;;;8.35;3.50;;;;;;;14.40;19.02;100254.69;5084843;28;20035;-61
2021/04/20 06:07:47;;;;;;;9.30;4.00;;;;;;;16.11;17.51;100218.13;5080660;28;20055;-62
2021/04/20 06:10:13;;;;;;;6.32;4.00;;;;;;;18.48;15.48;100246.47;5073609;28;20064;-61
2021/04/20 06:12:39;;;;;;;7.30;4.30;;;;;;;20.16;14.20;100231.63;5061727;28;20041;-63
2021/04/20 06:15:07;;;;;;;7.50;3.85;;;;;;;21.30;13.41;100222.03;5084796;28;20051;-63
2021/04/20 06:17:34;;;;;;;10.93;4.38;;;;;;;22.26;12.82;100216.88;5078962;28;20119;-62
2021/04/20 06:20:01;;;;;;;10.55;4.25;;;;;;;22.02;12.61;100221.63;5077683;28;20412;-62
2021/04/20 06:22:28;;;;;;;7.15;4.38;;;;;;;21.52;12.44;100154.03;5069181;28;20421;-61
2021/04/20 06:24:54;;;;;;;11.10;4.82;;;;;;;21.29;13.03;100217.59;5086975;28;20071;-62
2021/04/20 06:27:20;;;;;;;10.38;4.20;;;;;;;21.99;12.97;100217.38;5075394;28;20031;-63
2021/04/20 06:29:46;;;;;;;14.15;5.25;;;;;;;22.79;11.41;100213.94;5079343;28;20047;-62
2021/04/20 06:32:12;;;;;;;10.07;4.65;;;;;;;23.22;11.29;100202.94;5080654;28;20050;-62
2021/04/20 06:34:38;;;;;;;8.55;4.82;;;;;;;23.98;10.96;100208.69;5071510;28;20037;-62
2021/04/20 06:37:09;;;;;;;10.55;4.50;;;;;;;24.32;10.52;100211.59;5061628;28;20109;-57
2021/04/20 06:39:37;;;;;;;8.98;4.00;;;;;;;25.23;10.32;100195.75;5061404;28;20066;-61
2021/04/20 06:42:06;;;;;;;11.55;5.10;;;;;;;27.50;9.23;100216.81;5060177;28;20029;-58
2021/04/20 06:45:26;;;;;;;10.68;4.45;;;;;;;29.72;7.99;100190.78;5056902;28;20060;-59
2021/04/20 06:48:05;;;;;;;9.18;4.10;;;;;;;29.67;7.28;100165.03;5055683;28;20507;-61
2021/04/20 06:50:34;;;;;;;10.18;4.43;;;;;;;30.85;6.84;100202.44;5059934;28;20050;-61
2021/04/20 06:53:12;;;;;;;7.90;4.30;;;;;;;31.64;6.53;100208.94;5060316;28;20075;-62
2021/04/20 06:56:01;;;;;;;7.82;4.22;;;;;;;31.10;6.36;100203.94;5059821;28;20410;-62
2021/04/20 06:58:49;;;;;;;10.30;4.22;;;;;;;32.68;6.04;100199.09;5060619;28;20025;-62
2021/04/20 07:01:32;;;;;;;12.10;4.53;;;;;;;31.06;6.49;100195.31;5064205;28;20466;-61
2021/04/20 07:04:10;;;;;;;8.63;3.92;;;;;;;28.77;7.15;100190.72;5074648;28;20068;-62
2021/04/20 07:06:44;;;;;;;8.50;4.18;;;;;;;28.95;7.26;100159.53;5083475;28;20051;-58
2021/04/20 07:09:20;;;;;;;12.93;4.97;;;;;;;29.67;7.14;100184.34;5074681;28;20028;-61
2021/04/20 07:11:48;;;;;;;11.57;4.15;;;;;;;29.06;7.45;100180.72;5078919;28;20032;-60
2021/04/20 07:14:29;;;;;;;11.65;4.47;;;;;;;28.91;7.42;100175.69;5082845;28;20032;-60
2021/04/20 07:17:18;;;;;;;8.50;4.50;;;;;;;28.67;8.06;100180.25;5056230;28;20051;-61
2021/04/20 07:20:21;;;;;;;13.77;4.82;;;;;;;29.91;7.13;100163.91;5078786;28;20044;-61
2021/04/20 07:22:49;;;;;;;13.00;4.70;;;;;;;30.76;6.36;100171.59;5085390;28;20038;-60
2021/04/20 07:25:24;;;;;;;7.47;4.78;;;;;;;30.94;6.66;100172.44;5062097;28;20040;-60
2021/04/20 07:27:55;;;;;;;9.52;4.20;;;;;;;30.22;6.67;100171.97;5078100;28;20064;-60
2021/04/20 07:30:44;;;;;;;10.35;4.43;;;;;;;30.69;6.67;100173.69;5080925;28;20040;-64
2021/04/20 07:33:10;;;;;;;8.98;4.88;;;;;;;31.71;6.19;100147.00;5069269;28;20029;-59
2021/04/20 07:35:56;;;;;;;11.82;4.50;;;;;;;33.03;5.69;100161.69;5062942;28;20040;-58
2021/04/20 07:38:47;;;;;;;7.10;4.45;;;;;;;30.93;6.43;100165.25;5070054;28;20157;-57
2021/04/20 07:41:23;;;;;;;13.95;4.43;;;;;;;28.46;7.75;100173.38;5069817;28;20519;-55
2021/04/20 07:44:06;;;;;;;;;;;;;;;27.52;7.83;100175.38;5068066;28;20029;-55
2021/04/20 07:46:40;;;;;;;12.63;5.00;;;;;;;23.53;10.48;100168.09;5070096;28;19942;-58
2021/04/20 07:49:12;;;;;;;11.55;4.97;;;;;;;23.39;11.07;100161.69;5069181;28;20135;-56
2021/04/20 07:52:15;;;;;;;14.80;5.28;;;;;;;24.96;10.21;100159.28;5068983;28;20109;-54
2021/04/20 07:55:06;;;;;;;10.25;5.22;;;;;;;24.52;10.24;100171.44;5059496;28;20048;-59
2021/04/20 07:57:37;;;;;;;10.88;5.18;;;;;;;23.02;11.04;100170.03;5069003;28;20530;-56
2021/04/20 08:00:23;;;;;;;14.68;5.20;;;;;;;21.62;11.80;100167.38;5068643;28;20110;-56
2021/04/20 08:02:51;;;;;;;;;;;;;;;21.75;12.21;100174.94;5068154;28;20052;-56
2021/04/20 08:05:35;;;;;;;14.48;5.63;;;;;;;20.64;13.31;100166.25;5064252;28;19916;-55
2021/04/20 08:08:27;;;;;;;33.95;16.50;;;;;;;19.98;13.92;100163.06;5049245;28;20045;-53
2021/04/20 08:11:09;;;;;;;11.23;5.28;;;;;;;19.92;13.94;100181.78;5066494;28;20407;-53
2021/04/20 08:14:01;;;;;;;17.23;6.88;;;;;;;19.12;14.61;100166.38;5061038;28;20040;-59
2021/04/20 08:16:35;;;;;;;9.63;4.68;;;;;;;18.71;15.08;100184.31;5063660;28;20025;-56
2021/04/20 08:19:26;;;;;;;8.93;4.68;;;;;;;18.33;15.53;100183.94;5049172;28;20040;-57
2021/04/20 08:21:52;;;;;;;12.85;5.53;;;;;;;16.82;16.69;100167.00;5055067;28;20047;-54
2021/04/20 08:24:23;;;;;;;11.63;5.18;;;;;;;16.56;17.28;100172.34;5058338;28;20045;-59
2021/04/20 08:26:56;;;;;;;10.75;5.05;;;;;;;16.35;17.43;100174.34;5061675;28;20491;-58
2021/04/20 08:29:27;;;;;;;14.32;7.15;;;;;;;16.01;18.18;100182.22;5048225;28;20420;-57
2021/04/20 08:32:06;;;;;;;11.50;5.13;;;;;;;15.78;18.42;100161.84;5068579;28;20036;-55
2021/04/20 08:34:32;;;;;;;18.80;7.32;;;;;;;15.69;18.59;100168.13;5068794;28;20028;-58
2021/04/20 08:37:00;;;;;;;16.25;5.30;;;;;;;15.86;18.44;100168.34;5066545;28;20031;-54
2021/04/20 08:39:35;;;;;;;26.15;8.20;;;;;;;15.87;18.58;100172.75;5065676;28;20048;-56
2021/04/20 08:42:31;;;;;;;16.45;7.68;;;;;;;16.01;18.41;100182.22;5068721;28;20039;-55
2021/04/20 08:45:19;;;;;;;15.63;5.68;;;;;;;16.00;18.50;100170.56;5069016;28;20112;-58
2021/04/20 08:48:26;;;;;;;9.90;4.55;;;;;;;15.98;18.63;100161.75;5066959;28;20036;-54
2021/04/20 08:51:37;;;;;;;11.00;5.35;;;;;;;15.68;18.74;100152.94;5051379;28;20126;-55
2021/04/20 08:54:17;;;;;;;9.15;4.55;;;;;;;15.73;18.88;100153.34;5047123;28;20045;-51
2021/04/20 08:57:08;;;;;;;8.35;5.03;;;;;;;15.28;19.53;100154.94;5048244;28;20048;-53
2021/04/20 08:59:54;;;;;;;11.98;5.53;;;;;;;15.13;19.43;100124.03;5061423;28;20139;-53
2021/04/20 09:02:29;;;;;;;13.75;5.47;;;;;;;15.14;19.53;100156.25;5068037;28;20047;-54
2021/04/20 09:05:22;;;;;;;8.48;5.30;;;;;;;14.95;20.07;100143.69;5068089;28;20059;-52
2021/04/20 09:07:50;;;;;;;13.52;6.03;;;;;;;14.80;20.34;100131.63;5070321;28;20377;-53
2021/04/20 09:10:18;;;;;;;16.60;5.63;;;;;;;14.61;20.07;100063.25;5059887;28;20051;-50
2021/04/20 09:12:46;;;;;;;14.05;5.57;;;;;;;15.31;19.95;100130.38;5050841;28;20060;-54
2021/04/20 09:15:15;;;;;;;11.68;5.25;;;;;;;15.59;19.59;100149.28;5051562;28;20040;-56
2021/04/20 09:17:51;;;;;;;11.43;5.03;;;;;;;15.59;19.77;100126.88;5069277;28;20161;-52
2021/04/20 09:20:44;;;;;;;12.75;5.32;;;;;;;15.64;19.70;100132.66;5066374;28;20146;-59
2021/04/20 09:23:27;;;;;;;16.73;5.78;;;;;;;15.85;19.68;100124.28;5071244;28;20479;-58
2021/04/20 09:26:04;;;;;;;14.85;5.43;;;;;;;15.81;19.93;100124.78;5071214;28;20482;-54
2021/04/20 09:28:33;;;;;;;14.20;5.75;;;;;;;15.40;20.24;100128.63;5070928;28;20063;-51
2021/04/20 09:31:10;;;;;;;9.95;5.40;;;;;;;15.33;20.43;100133.75;5069176;28;20040;-58
2021/04/20 09:33:46;;;;;;;13.10;5.97;;;;;;;15.20;20.74;100130.56;5071557;28;20040;-57
2021/04/20 09:36:13;;;;;;;6.35;4.82;;;;;;;15.13;21.13;100129.44;5071418;28;20040;-49
2021/04/20 09:38:42;;;;;;;12.05;5.78;;;;;;;15.00;21.48;100118.94;5071683;28;20040;-56
2021/04/20 09:41:09;;;;;;;11.27;6.07;;;;;;;14.85;21.66;100105.94;5070502;28;20398;-56
2021/04/20 09:43:59;;;;;;;13.27;5.80;;;;;;;14.99;21.70;100095.69;5070632;28;20050;-52
2021/04/20 09:46:32;;;;;;;16.42;5.82;;;;;;;15.09;22.48;100106.44;5071379;28;20037;-57
2021/04/20 09:49:17;;;;;;;12.70;6.32;;;;;;;14.80;23.48;100128.94;5071703;28;20368;-51
2021/04/20 09:51:55;;;;;;;12.25;6.45;;;;;;;14.76;23.72;100139.13;5069690;28;20032;-54
2021/04/20 09:54:35;;;;;;;13.95;6.40;;;;;;;14.48;24.07;100121.00;5070529;28;20103;-59
2021/04/20 09:57:05;;;;;;;15.05;6.32;;;;;;;14.19;24.26;100110.19;5071407;28;20064;-59
2021/04/20 09:59:54;;;;;;;12.07;5.40;;;;;;;14.38;23.87;100098.56;5067716;28;20060;-55
2021/04/20 10:02:22;;;;;;;18.67;6.10;;;;;;;14.74;24.71;100120.44;5051370;28;20419;-55
2021/04/20 10:05:17;;;;;;;15.57;7.75;;;;;;;14.25;25.42;100122.25;5051262;28;20119;-55
2021/04/20 10:08:05;;;;;;;20.23;8.98;;;;;;;14.00;26.16;100097.56;5050218;28;20052;-53
2021/04/20 10:10:47;;;;;;;16.10;8.00;;;;;;;14.13;25.80;100122.38;5064550;28;20498;-59
2021/04/20 10:13:41;;;;;;;14.82;8.25;;;;;;;14.15;26.01;100106.09;5070226;28;20476;-52
2021/04/20 10:16:18;;;;;;;15.98;8.40;;;;;;;13.92;26.31;100112.56;5069937;28;20142;-56
2021/04/20 10:18:48;;;;;;;16.88;9.05;;;;;;;13.70;26.46;100104.72;5070563;28;20506;-53
2021/04/20 10:21:47;;;;;;;14.13;6.95;;;;;;;14.03;26.49;100100.81;5069297;28;20033;-52
2021/04/20 10:24:25;;;;;;;18.67;9.48;;;;;;;13.64;26.84;100123.13;5064820;28;20043;-59
2021/04/20 10:26:56;;;;;;;14.55;9.65;;;;;;;13.53;27.25;100104.41;5069742;28;20032;-53
2021/04/20 10:29:31;;;;;;;17.90;8.82;;;;;;;13.54;27.32;100107.94;5070885;28;20098;-59
2021/04/20 10:32:06;;;;;;;16.05;8.82;;;;;;;13.58;27.36;100107.53;5069731;28;20390;-57
2021/04/20 10:34:35;;;;;;;17.73;8.43;;;;;;;13.41;28.31;100116.19;5070088;28;20114;-53
2021/04/20 10:37:01;;;;;;;18.35;8.27;;;;;;;13.16;28.47;100100.41;5069828;28;20033;-55
2021/04/20 10:39:29;;;;;;;21.23;8.50;;;;;;;13.17;28.52;100115.53;5069993;28;20406;-56
2021/04/20 10:41:56;;;;;;;14.85;8.23;;;;;;;12.81;28.73;100063.16;5068895;28;20031;-56
2021/04/20 10:44:25;;;;;;;22.73;9.85;;;;;;;13.15;28.60;100117.50;5069965;28;20041;-57
2021/04/20 10:46:55;;;;;;;20.25;8.35;;;;;;;13.02;29.23;100096.22;5069797;28;20395;-57
2021/04/20 10:49:23;;;;;;;19.30;8.10;;;;;;;12.89;29.29;100087.50;5069845;28;20063;-56
2021/04/20 10:51:54;;;;;;;16.83;8.55;;;;;;;12.68;29.79;100092.91;5065680;28;20461;-53
2021/04/20 10:54:21;;;;;;;14.40;8.00;;;;;;;12.80;29.86;100112.50;5056177;28;20464;-56
2021/04/20 10:56:51;;;;;;;12.52;7.25;;;;;;;12.68;30.04;100109.03;5070144;28;20130;-52
2021/04/20 10:59:33;;;;;;;16.75;7.78;;;;;;;12.68;30.05;100131.34;5069287;28;20048;-54
2021/04/20 11:02:06;;;;;;;16.58;7.68;;;;;;;12.33;30.57;100100.28;5067576;28;20419;-55
2021/04/20 11:04:36;;;;;;;15.25;7.65;;;;;;;12.29;30.75;100121.16;5069005;28;20041;-56
2021/04/20 11:07:32;;;;;;;18.20;8.63;;;;;;;12.44;30.51;100135.13;5069504;28;20056;-50
2021/04/20 11:10:05;;;;;;;23.00;8.13;;;;;;;12.26;31.07;100131.28;5069296;28;20538;-52
2021/04/20 11:12:31;;;;;;;13.30;7.20;;;;;;;12.11;31.15;100112.78;5067701;28;20135;-57
2021/04/20 11:14:58;;;;;;;13.98;7.35;;;;;;;11.74;31.54;100105.91;5068519;28;20052;-55
2021/04/20 11:17:39;;;;;;;9.10;5.30;;;;;;;11.85;31.35;100136.34;5069323;28;20059;-55
2021/04/20 11:20:07;;;;;;;13.20;6.70;;;;;;;11.49;32.14;100128.47;5068580;28;20036;-57
2021/04/20 11:22:37;;;;;;;16.80;6.85;;;;;;;11.36;32.66;100123.22;5068991;28;20029;-59
2021/04/20 11:25:10;;;;;;;18.58;7.18;;;;;;;11.10;32.64;100079.75;5066594;28;20048;-57
2021/04/20 11:27:36;;;;;;;9.98;5.80;;;;;;;11.21;33.25;100114.56;5069282;28;20484;-54
2021/04/20 11:30:13;;;;;;;12.15;5.18;;;;;;;11.29;33.82;100122.84;5069148;28;20036;-57
2021/04/20 11:32:48;;;;;;;14.50;5.05;;;;;;;11.04;35.32;100113.22;5068004;28;20123;-57
2021/04/20 11:35:16;;;;;;;9.80;5.53;;;;;;;10.96;35.27;100094.19;5068124;28;20041;-53
2021/04/20 11:37:45;;;;;;;9.88;4.55;;;;;;;11.06;34.26;100113.94;5070050;28;20032;-52
2021/04/20 11:40:18;;;;;;;8.38;4.53;;;;;;;11.25;33.49;100118.72;5069777;28;20040;-55
2021/04/20 11:42:48;;;;;;;10.05;4.82;;;;;;;11.05;33.89;100114.94;5069653;28;20034;-55
2021/04/20 11:45:23;;;;;;;9.38;4.47;;;;;;;10.93;34.27;100078.38;5062643;28;20384;-57
2021/04/20 11:47:54;;;;;;;7.22;4.63;;;;;;;10.99;35.06;100116.25;5049745;28;20029;-55